Time;durP1;ratioP1;P1;durP2;ratioP2;P2;SDS_P1;SDS_P2;PMS_P1;PMS_P2;Temp;Humidity;BMP_temperature;BMP_pressure;BME280_temperature;BME280_humidity;BME280_pressure;Samples;Min_cycle;Max_cycle;Signal;HPM_P1;HPM_P2
2020/12/18 00:02:15;;;;;;;32.77;12.23;;;5.70;94.80;;;5.17;89.44;98970.44;5134218;27;20660;-72
2020/12/18 00:04:46;;;;;;;46.63;12.67;;;5.60;94.80;;;5.16;89.90;98973.06;5111436;28;20658;-71
2020/12/18 00:07:13;;;;;;;29.77;11.90;;;5.60;94.50;;;5.16;90.01;98979.06;5101230;27;20697;-71
2020/12/18 00:09:41;;;;;;;25.00;11.63;;;5.60;94.70;;;5.16;90.22;98973.91;5129690;27;20645;-73
2020/12/18 00:12:10;;;;;;;39.77;12.07;;;5.60;94.90;;;5.18;90.31;98972.09;5113565;28;20633;-72
2020/12/18 00:14:38;;;;;;;40.90;11.07;;;5.60;94.90;;;5.19;90.14;98972.97;5114096;27;20728;-71
2020/12/18 00:17:05;;;;;;;26.73;11.43;;;5.60;94.90;;;5.20;89.97;98969.47;5099518;28;20627;-72
2020/12/18 00:19:34;;;;;;;51.97;11.63;;;5.60;94.90;;;5.18;89.84;98972.09;5121086;27;20632;-72
2020/12/18 00:22:02;;;;;;;27.43;10.40;;;5.60;94.90;;;5.15;89.98;98972.19;5116412;27;20626;-71
2020/12/18 00:24:29;;;;;;;30.97;10.20;;;5.60;94.80;;;5.13;90.35;98962.84;5120211;27;20629;-72
2020/12/18 00:26:57;;;;;;;40.63;9.90;;;5.60;94.80;;;5.11;89.62;98964.59;5130790;27;20664;-71
2020/12/18 00:29:25;;;;;;;14.07;9.63;;;5.60;94.70;;;5.05;88.54;98969.13;5133563;27;20652;-72
2020/12/18 00:31:53;;;;;;;15.00;8.83;;;5.50;94.20;;;4.93;88.80;98961.78;5123281;27;20629;-73
2020/12/18 00:34:20;;;;;;;35.07;10.93;;;5.40;93.90;;;4.92;89.51;98965.28;5131160;27;21053;-71
2020/12/18 00:36:51;;;;;;;27.20;11.00;;;5.40;94.00;;;4.94;89.67;98963.47;5131304;27;21316;-72
2020/12/18 00:39:19;;;;;;;25.30;10.23;;;5.40;94.20;;;4.99;89.67;98964.16;5130521;27;21021;-72
2020/12/18 00:41:53;;;;;;;20.97;10.43;;;5.40;94.40;;;4.94;88.68;98966.06;5111489;28;21216;-72
2020/12/18 00:44:20;;;;;;;25.30;10.53;;;5.40;94.20;;;4.95;88.81;98970.34;5097220;28;20637;-72
2020/12/18 00:46:49;;;;;;;28.23;10.30;;;5.40;94.20;;;5.00;89.56;98965.88;5099899;27;20622;-72
2020/12/18 00:49:17;;;;;;;29.23;10.50;;;5.40;94.30;;;4.97;88.98;98968.53;5125248;27;20652;-72
2020/12/18 00:51:45;;;;;;;20.83;9.40;;;5.40;94.50;;;4.89;88.83;98973.97;5111512;27;20663;-72
2020/12/18 00:54:12;;;;;;;27.20;10.67;;;5.40;94.30;;;4.81;89.22;98975.94;5115114;27;20600;-72
2020/12/18 00:56:44;;;;;;;31.80;10.03;;;5.30;94.10;;;4.80;89.82;98973.41;5107559;28;20747;-72
2020/12/18 00:59:12;;;;;;;21.60;10.93;;;5.30;94.30;;;4.83;88.31;98970.72;5103202;28;20621;-71
2020/12/18 01:01:40;;;;;;;47.20;11.40;;;5.30;94.20;;;4.85;89.52;98974.09;5105651;28;21195;-71
2020/12/18 01:04:09;;;;;;;15.00;9.67;;;5.30;94.20;;;4.79;88.80;98982.88;5119021;27;21227;-71
2020/12/18 01:06:36;;;;;;;22.50;10.23;;;5.20;94.20;;;4.77;89.37;98983.84;5113471;27;20694;-72
2020/12/18 01:09:04;;;;;;;40.67;10.53;;;5.20;94.20;;;4.72;88.43;98989.16;5094724;28;20661;-71
2020/12/18 01:11:38;;;;;;;23.00;9.47;;;5.20;94.20;;;4.69;89.02;98996.13;5115767;28;20639;-71
2020/12/18 01:14:11;;;;;;;31.27;9.30;;;5.10;94.30;;;4.68;88.65;98995.28;5097283;28;20612;-72
2020/12/18 01:16:51;;;;;;;35.37;10.93;;;5.10;94.30;;;4.65;89.37;98991.97;5110016;28;20690;-71
2020/12/18 01:19:20;;;;;;;22.47;9.80;;;5.10;94.40;;;4.63;89.24;99001.50;5109946;28;20621;-71
2020/12/18 01:21:49;;;;;;;24.93;8.70;;;5.10;94.80;;;4.60;89.29;98990.41;5124723;28;20606;-72
2020/12/18 01:24:19;;;;;;;36.83;9.50;;;5.10;94.50;;;4.54;89.83;99001.78;5106321;28;21192;-72
2020/12/18 01:26:52;;;;;;;24.63;7.93;;;5.10;94.70;;;4.53;90.14;98997.50;5105092;28;21220;-71
2020/12/18 01:29:19;;;;;;;30.83;7.40;;;5.00;94.80;;;4.52;90.42;98997.56;5111767;27;20640;-71
2020/12/18 01:31:50;;;;;;;31.60;8.80;;;5.00;95.10;;;4.51;91.78;99001.88;5113791;28;20621;-72
2020/12/18 01:34:17;;;;;;;31.13;8.77;;;5.00;95.30;;;4.55;91.48;99007.78;5112186;28;20628;-71
2020/12/18 01:36:46;;;;;;;19.73;7.00;;;5.00;95.40;;;4.56;90.69;99015.50;5113560;28;20637;-71
2020/12/18 01:39:27;;;;;;;22.33;8.00;;;5.00;95.40;;;4.53;91.41;99007.84;5129586;27;20947;-71
2020/12/18 01:41:55;;;;;;;23.80;7.80;;;5.00;95.30;;;4.52;91.16;99010.47;5097901;28;20695;-71
2020/12/18 01:44:23;;;;;;;18.77;7.53;;;5.00;95.20;;;4.46;90.55;99014.06;5116480;27;21139;-72
2020/12/18 01:46:54;;;;;;;29.67;7.70;;;5.00;95.30;;;4.45;90.94;99016.69;5109549;27;20988;-72
2020/12/18 01:49:23;;;;;;;31.83;7.80;;;4.90;95.20;;;4.42;91.54;99012.47;5098840;28;21073;-71
2020/12/18 01:51:55;;;;;;;18.73;8.40;;;4.90;95.20;;;4.41;91.18;99013.34;5121893;27;20664;-71
2020/12/18 01:54:43;;;;;;;24.73;7.20;;;4.90;95.30;;;4.41;90.74;99015.94;5111914;28;20618;-72
2020/12/18 01:57:11;;;;;;;25.40;7.20;;;4.90;95.40;;;4.39;91.04;99016.84;5110427;27;20677;-70
2020/12/18 01:59:53;;;;;;;19.33;7.57;;;4.90;95.40;;;4.39;91.50;99017.72;5097669;28;20609;-72
2020/12/18 02:02:42;;;;;;;25.53;7.63;;;4.90;95.50;;;4.38;91.67;99015.19;5126538;27;20641;-72
2020/12/18 02:05:44;;;;;;;35.07;8.90;;;4.90;95.30;;;4.32;90.97;99013.63;5102031;27;20624;-72
2020/12/18 02:08:29;;;;;;;13.00;7.37;;;4.80;95.20;;;4.29;91.21;99010.28;5102142;27;21763;-71
2020/12/18 02:11:20;;;;;;;13.77;7.70;;;4.80;95.00;;;4.27;90.12;99006.91;5124680;27;20657;-71
2020/12/18 02:13:50;;;;;;;19.03;7.37;;;4.80;94.90;;;4.30;90.94;99005.09;5125943;27;20641;-70
2020/12/18 02:16:18;;;;;;;19.77;7.13;;;4.80;94.90;;;4.31;89.64;98996.44;5134736;27;20635;-71
2020/12/18 02:18:47;;;;;;;37.30;8.50;;;4.80;95.00;;;4.29;90.19;99005.97;5115080;27;21165;-71
2020/12/18 02:21:15;;;;;;;32.13;9.57;;;4.80;94.90;;;4.33;90.11;99002.41;5099181;27;20685;-72
2020/12/18 02:23:48;;;;;;;23.23;8.20;;;4.80;94.90;;;4.36;90.20;99002.31;5100851;27;20627;-72
2020/12/18 02:26:18;;;;;;;41.53;8.83;;;4.80;95.00;;;4.38;90.42;99003.13;5133788;27;20735;-72
2020/12/18 02:28:49;;;;;;;29.63;8.87;;;4.90;95.10;;;4.39;91.16;98991.03;5084679;27;20612;-71
2020/12/18 02:31:23;;;;;;;33.17;8.53;;;4.90;95.20;;;4.44;91.52;98992.59;5104315;27;21046;-71
2020/12/18 02:34:10;;;;;;;28.67;8.63;;;4.90;95.20;;;4.44;89.84;98989.19;5129973;27;20641;-71
2020/12/18 02:36:43;;;;;;;28.77;8.57;;;4.90;95.20;;;4.44;91.16;98984.03;5114237;27;20742;-70
2020/12/18 02:39:12;;;;;;;24.07;7.87;;;4.90;95.20;;;4.44;91.22;98977.13;5116955;27;20645;-71
2020/12/18 02:41:44;;;;;;;35.00;8.07;;;4.90;95.30;;;4.46;91.35;98974.50;5124834;27;20733;-71
2020/12/18 02:44:18;;;;;;;49.33;7.90;;;4.90;95.20;;;4.46;91.13;98982.25;5094267;27;20670;-71
2020/12/18 02:47:06;;;;;;;36.97;7.47;;;4.90;95.20;;;4.45;90.68;98976.25;5134449;27;21194;-71
2020/12/18 02:49:34;;;;;;;22.30;8.67;;;4.90;95.20;;;4.46;89.84;98977.91;5116803;27;21065;-71
2020/12/18 02:52:03;;;;;;;31.53;8.07;;;4.90;95.10;;;4.49;90.98;98975.22;5097995;27;20616;-70
2020/12/18 02:54:50;;;;;;;34.33;8.10;;;5.00;95.20;;;4.46;91.13;98977.91;5113704;27;20642;-71
2020/12/18 02:57:30;;;;;;;28.10;8.50;;;4.90;95.00;;;4.39;89.50;98971.25;5115323;27;20629;-71
2020/12/18 03:00:07;;;;;;;28.50;7.47;;;4.90;94.80;;;4.40;89.95;98983.25;5116401;27;20593;-71
2020/12/18 03:02:37;;;;;;;37.67;8.80;;;4.90;94.80;;;4.42;89.67;98978.91;5111346;27;20669;-71
2020/12/18 03:05:07;;;;;;;30.43;7.23;;;4.90;94.80;;;4.42;90.17;98976.34;5087919;27;20725;-71
2020/12/18 03:08:03;;;;;;;29.10;7.90;;;4.90;94.90;;;4.38;90.30;98972.13;5095846;28;20629;-71
2020/12/18 03:10:31;;;;;;;29.07;8.43;;;4.90;94.90;;;4.40;90.77;98970.34;5100656;27;20652;-71
2020/12/18 03:13:00;;;;;;;30.23;7.63;;;4.90;95.00;;;4.35;89.87;98976.56;5113411;27;20622;-71
2020/12/18 03:15:28;;;;;;;23.63;7.87;;;4.80;94.90;;;4.33;89.96;98976.59;5111015;27;20628;-71
2020/12/18 03:18:05;;;;;;;17.73;6.83;;;4.80;94.80;;;4.36;90.25;98978.22;5120604;27;20649;-70
2020/12/18 03:20:36;;;;;;;27.10;7.47;;;4.80;94.70;;;4.37;89.35;98985.94;5112179;28;20628;-71
2020/12/18 03:23:35;;;;;;;30.17;7.13;;;4.80;94.60;;;4.41;89.55;98987.53;5096396;28;21155;-72
2020/12/18 03:26:35;;;;;;;15.80;7.23;;;4.80;94.50;;;4.39;89.65;98979.00;5095165;27;20633;-71
2020/12/18 03:29:12;;;;;;;25.37;7.60;;;4.80;94.50;;;4.31;88.92;98980.94;5108493;27;20632;-70
2020/12/18 03:31:40;;;;;;;19.27;7.50;;;4.80;94.60;;;4.27;89.70;98976.78;5109068;27;20641;-71
2020/12/18 03:34:07;;;;;;;19.00;7.93;;;4.70;94.50;;;4.26;89.80;98982.00;5110086;28;20622;-71
2020/12/18 03:36:40;;;;;;;19.20;7.30;;;4.80;94.70;;;4.22;89.53;98967.47;5104461;28;20653;-70
2020/12/18 03:39:13;;;;;;;29.10;7.57;;;4.70;94.60;;;4.22;90.49;98977.78;5111020;27;21004;-71
2020/12/18 03:42:16;;;;;;;24.37;7.30;;;4.70;94.50;;;4.22;89.18;98975.22;5097682;27;21186;-70
2020/12/18 03:44:46;;;;;;;16.30;6.60;;;4.70;94.40;;;4.15;89.78;98976.31;5112908;27;20717;-70
2020/12/18 03:47:17;;;;;;;17.43;7.00;;;4.70;94.60;;;4.17;89.42;98986.59;5102934;27;20626;-70
2020/12/18 03:49:57;;;;;;;30.50;9.90;;;4.70;94.70;;;4.19;89.68;98985.63;5093729;27;20668;-70
2020/12/18 03:52:26;;;;;;;23.53;6.90;;;4.70;94.70;;;4.19;89.14;98987.38;5111572;27;20698;-70
2020/12/18 03:54:54;;;;;;;28.10;7.70;;;4.60;94.60;;;4.16;89.61;98982.28;5131534;27;20629;-70
2020/12/18 03:57:57;;;;;;;28.80;6.70;;;4.60;94.60;;;4.10;90.83;98988.47;5116765;27;20617;-71
2020/12/18 04:01:03;;;;;;;31.00;7.40;;;4.60;94.70;;;4.15;89.38;98985.75;5110939;27;20717;-70
2020/12/18 04:03:31;;;;;;;30.50;7.53;;;4.60;94.70;;;4.14;89.94;98989.25;5095364;28;20677;-70
2020/12/18 04:05:59;;;;;;;36.77;7.10;;;4.60;94.90;;;4.15;89.91;98993.50;5119363;27;20633;-70
2020/12/18 04:08:27;;;;;;;23.73;7.10;;;4.60;95.10;;;4.16;91.27;98990.88;5109503;28;20618;-70
2020/12/18 04:11:21;;;;;;;35.63;7.53;;;4.60;95.30;;;4.19;91.40;98989.94;5105544;27;20713;-70
2020/12/18 04:13:57;;;;;;;21.50;7.37;;;4.70;95.40;;;4.22;90.48;98978.66;5114103;27;20649;-71
2020/12/18 04:16:36;;;;;;;32.70;7.97;;;4.70;95.10;;;4.21;89.74;98978.72;5113915;27;20993;-70
2020/12/18 04:19:05;;;;;;;21.10;7.03;;;4.60;94.90;;;4.19;90.46;98980.47;5115368;27;21178;-70
2020/12/18 04:21:33;;;;;;;22.13;7.30;;;4.60;94.90;;;4.18;90.19;98972.78;5093090;28;20629;-70
2020/12/18 04:24:27;;;;;;;24.07;6.87;;;4.60;95.10;;;4.15;90.95;98965.13;5109611;27;20628;-71
2020/12/18 04:26:55;;;;;;;18.30;7.30;;;4.60;95.20;;;4.13;91.04;98969.47;5109901;28;20615;-70
2020/12/18 04:29:22;;;;;;;25.80;6.90;;;4.60;95.20;;;4.15;90.59;98970.28;5105365;27;20624;-70
2020/12/18 04:31:51;;;;;;;24.93;6.57;;;4.60;95.10;;;4.16;90.86;98971.97;5114000;27;20641;-71
2020/12/18 04:34:19;;;;;;;15.60;6.30;;;4.60;95.20;;;4.18;90.78;98976.22;5110373;28;20637;-71
2020/12/18 04:37:10;;;;;;;13.20;6.30;;;4.70;95.30;;;4.21;91.13;98966.63;5089417;28;20728;-71
2020/12/18 04:39:56;;;;;;;27.07;7.13;;;4.70;95.30;;;4.30;90.50;98974.13;5120158;27;20685;-71
2020/12/18 04:42:28;;;;;;;13.60;6.23;;;4.80;95.30;;;4.34;90.87;98969.69;5114674;27;20629;-70
2020/12/18 04:44:56;;;;;;;13.83;6.70;;;4.80;95.30;;;4.37;90.66;98959.28;5110395;28;20732;-70
2020/12/18 04:47:25;;;;;;;8.40;6.23;;;4.80;95.20;;;4.39;89.91;98950.59;5097707;28;21245;-71
2020/12/18 04:49:55;;;;;;;8.73;6.33;;;4.90;95.20;;;4.42;91.42;98959.97;5123914;27;21214;-70
2020/12/18 04:52:30;;;;;;;10.20;6.60;;;4.90;95.20;;;4.46;91.25;98953.84;5099681;28;20626;-70
2020/12/18 04:55:01;;;;;;;10.73;6.07;;;4.90;95.20;;;4.48;90.75;98958.06;5111583;28;20628;-69
2020/12/18 04:57:48;;;;;;;9.63;6.57;;;5.00;95.20;;;4.53;89.57;98953.59;5075024;27;20630;-69
2020/12/18 05:00:22;;;;;;;7.80;6.30;;;5.00;95.00;;;4.51;89.79;98952.81;5096259;28;20634;-70
2020/12/18 05:03:23;;;;;;;13.60;7.07;;;5.00;94.80;;;4.55;90.62;98959.56;5099569;27;20654;-69
2020/12/18 05:05:52;;;;;;;17.57;7.30;;;4.90;94.70;;;4.55;90.51;98956.97;5106975;28;20702;-72
2020/12/18 05:08:20;;;;;;;13.10;7.73;;;5.00;94.80;;;4.55;90.29;98948.41;5096898;28;20723;-69
2020/12/18 05:10:47;;;;;;;16.47;7.27;;;5.00;94.60;;;4.52;90.31;98949.31;5079948;28;21004;-69
2020/12/18 05:13:27;;;;;;;11.73;7.03;;;5.00;94.60;;;4.52;90.38;98957.06;5110762;28;20628;-69
2020/12/18 05:16:02;;;;;;;14.00;7.87;;;5.00;94.60;;;4.57;89.28;98969.84;5103213;28;21171;-69
2020/12/18 05:18:52;;;;;;;11.20;7.07;;;5.00;94.50;;;4.58;89.48;98956.88;5118209;27;21167;-71
2020/12/18 05:21:39;;;;;;;17.30;6.53;;;5.00;94.40;;;4.51;89.28;98954.53;5116227;27;20690;-69
2020/12/18 05:24:13;;;;;;;31.73;8.83;;;5.00;94.00;;;4.49;89.45;98954.56;5104968;28;20632;-69
2020/12/18 05:26:45;;;;;;;33.07;8.00;;;5.00;94.00;;;4.50;89.93;98943.38;5109646;27;20636;-69
2020/12/18 05:29:13;;;;;;;32.47;8.97;;;5.00;94.20;;;4.50;89.89;98942.53;5116587;27;20635;-69
2020/12/18 05:32:02;;;;;;;20.13;9.10;;;5.00;94.50;;;4.49;89.41;98936.50;5121315;27;20657;-70
2020/12/18 05:34:40;;;;;;;35.40;7.30;;;5.00;94.60;;;4.52;88.95;98940.75;5107537;27;21204;-69
2020/12/18 05:37:19;;;;;;;23.43;8.03;;;5.00;94.30;;;4.48;87.66;98942.59;5115906;27;21190;-70
2020/12/18 05:40:00;;;;;;;19.10;8.07;;;4.90;93.90;;;4.41;88.62;98947.97;5134243;27;20638;-69
2020/12/18 05:42:46;;;;;;;26.20;8.10;;;4.90;94.20;;;4.43;89.95;98949.59;5101640;27;21196;-68
2020/12/18 05:45:19;;;;;;;27.83;9.87;;;4.90;94.40;;;4.44;89.17;98951.31;5114426;27;20629;-69
2020/12/18 05:47:58;;;;;;;29.97;9.20;;;4.90;94.60;;;4.44;89.91;98956.47;5126083;27;21168;-70
2020/12/18 05:50:38;;;;;;;16.90;8.53;;;4.90;94.70;;;4.46;89.92;98959.00;5125562;27;20651;-70
2020/12/18 05:53:12;;;;;;;31.90;9.50;;;4.90;94.80;;;4.49;90.31;98961.50;5114886;28;20625;-70
2020/12/18 05:55:50;;;;;;;32.53;9.70;;;5.00;94.90;;;4.50;90.57;98958.03;5111877;27;20640;-70
2020/12/18 05:58:33;;;;;;;25.83;8.63;;;5.00;94.90;;;4.49;89.75;98961.50;5097891;28;20647;-70
2020/12/18 06:01:17;;;;;;;42.10;10.10;;;5.00;94.80;;;4.48;89.95;98965.81;5109245;27;20624;-70
2020/12/18 06:04:09;;;;;;;32.43;11.60;;;5.00;94.80;;;4.44;90.39;98956.47;5136365;27;20717;-70
2020/12/18 06:06:46;;;;;;;26.53;10.50;;;4.90;94.80;;;4.49;90.99;98952.00;5115654;27;20735;-70
2020/12/18 06:09:19;;;;;;;39.03;10.17;;;5.00;95.10;;;4.53;90.35;98948.44;5116679;27;21023;-73
2020/12/18 06:11:48;;;;;;;25.10;10.23;;;5.00;95.10;;;4.58;90.31;98956.03;5116770;27;20648;-71
2020/12/18 06:14:17;;;;;;;30.00;9.13;;;5.00;95.10;;;4.60;90.16;98944.78;5122036;27;20699;-70
2020/12/18 06:17:08;;;;;;;21.93;8.87;;;5.00;94.80;;;4.51;88.72;98955.41;5104026;27;20628;-70
2020/12/18 06:19:44;;;;;;;24.87;8.67;;;5.00;94.60;;;4.50;90.06;98938.19;5100216;27;20685;-70
2020/12/18 06:22:18;;;;;;;21.37;9.50;;;5.00;94.70;;;4.53;89.80;98940.69;5102206;28;20626;-71
2020/12/18 06:25:12;;;;;;;24.10;10.53;;;5.00;94.70;;;4.50;89.28;98947.69;5114044;27;20668;-71
2020/12/18 06:28:01;;;;;;;20.77;11.07;;;5.00;94.50;;;4.45;90.32;98949.56;5112666;27;20736;-70
2020/12/18 06:31:21;;;;;;;30.43;8.93;;;5.00;94.50;;;4.39;89.86;98945.44;5117239;27;20658;-70
2020/12/18 06:34:10;;;;;;;30.57;9.27;;;4.90;94.50;;;4.40;89.39;98943.69;5115617;28;20593;-69
2020/12/18 06:37:10;;;;;;;16.50;7.83;;;4.90;94.70;;;4.40;89.77;98952.28;5117501;27;21517;-70
2020/12/18 06:40:26;;;;;;;27.43;9.27;;;4.90;94.70;;;4.48;90.42;98960.66;5099219;27;20641;-70
2020/12/18 06:43:34;;;;;;;30.10;9.87;;;4.90;94.70;;;4.48;89.42;98960.66;5084451;27;21006;-70
2020/12/18 06:46:28;;;;;;;29.97;11.00;;;4.90;94.50;;;4.53;89.08;98957.94;5122457;27;21167;-71
2020/12/18 06:49:16;;;;;;;25.20;10.43;;;5.00;94.60;;;4.49;89.78;98961.50;5082886;28;20656;-71
2020/12/18 06:52:38;;;;;;;17.70;8.73;;;5.00;94.60;;;4.50;89.85;98974.34;5119562;27;20631;-73
2020/12/18 06:55:09;;;;;;;24.20;9.10;;;5.00;94.90;;;4.45;89.20;98963.31;5104202;27;20621;-70
2020/12/18 06:58:17;;;;;;;21.00;8.93;;;5.00;94.50;;;4.42;89.71;98971.16;5127037;27;20629;-73
2020/12/18 07:00:54;;;;;;;25.20;8.03;;;4.90;94.40;;;4.41;89.48;98966.88;5124465;27;20697;-74
2020/12/18 07:03:49;;;;;;;24.67;10.60;;;4.90;94.40;;;4.41;90.34;98974.63;5125447;27;21127;-73
2020/12/18 07:06:23;;;;;;;16.70;8.33;;;4.90;94.50;;;4.39;89.35;98972.97;5124035;27;20973;-72
2020/12/18 07:08:51;;;;;;;18.37;8.80;;;4.90;94.50;;;4.41;88.83;98976.38;5100399;28;20632;-71
2020/12/18 07:11:20;;;;;;;16.70;8.93;;;4.90;94.40;;;4.40;88.67;98972.94;5129727;27;20632;-72
2020/12/18 07:14:07;;;;;;;20.10;11.87;;;4.90;94.40;;;4.41;89.82;98969.47;5110098;27;20799;-73
2020/12/18 07:16:35;;;;;;;35.53;10.40;;;4.90;94.40;;;4.37;89.03;98973.03;5087707;28;20697;-71
2020/12/18 07:19:04;;;;;;;21.60;9.73;;;4.90;94.30;;;4.31;89.29;98967.19;5089453;28;21232;-74
2020/12/18 07:21:41;;;;;;;15.80;9.00;;;4.80;94.10;;;4.31;89.17;98973.19;5084722;28;20631;-72
2020/12/18 07:24:09;;;;;;;47.40;11.37;;;4.80;94.20;;;4.32;88.38;98968.91;5082720;28;20697;-73
2020/12/18 07:26:36;;;;;;;26.87;11.17;;;4.80;94.10;;;4.21;89.42;98971.81;5088279;28;20619;-73
2020/12/18 07:29:05;;;;;;;31.57;12.10;;;4.70;94.00;;;4.26;88.98;98966.50;5081721;28;20630;-73
2020/12/18 07:31:32;;;;;;;19.30;10.03;;;4.70;94.20;;;4.24;89.90;98963.13;5086353;28;20681;-72
2020/12/18 07:34:01;;;;;;;28.33;9.90;;;4.70;94.50;;;4.28;90.41;98956.97;5086403;28;20741;-74
2020/12/18 07:36:30;;;;;;;20.03;9.83;;;4.70;94.70;;;4.30;89.94;98953.47;5089376;28;20677;-73
2020/12/18 07:39:00;;;;;;;28.50;9.43;;;4.80;94.70;;;4.33;89.58;98963.69;5089987;28;21286;-73
2020/12/18 07:41:30;;;;;;;20.60;9.13;;;4.80;95.10;;;4.36;89.94;98958.44;5086488;28;20722;-73
2020/12/18 07:44:05;;;;;;;15.77;8.87;;;4.80;94.70;;;4.42;89.38;98959.97;5087379;28;20631;-75
2020/12/18 07:46:34;;;;;;;15.80;10.63;;;4.90;94.80;;;4.51;88.92;98962.28;5087412;28;20627;-73
2020/12/18 07:49:08;;;;;;;12.90;9.20;;;4.90;94.80;;;4.60;89.83;98956.84;5082888;28;20623;-73
2020/12/18 07:51:38;;;;;;;17.37;11.30;;;5.00;94.70;;;4.67;89.52;98956.59;5082118;28;21238;-72
2020/12/18 07:54:06;;;;;;;22.13;13.07;;;5.10;94.60;;;4.70;88.62;98956.50;5104237;28;20746;-73
2020/12/18 07:56:34;;;;;;;26.20;10.20;;;5.10;94.50;;;4.74;88.50;98955.53;5085967;28;20627;-74
2020/12/18 07:59:08;;;;;;;31.27;9.43;;;5.20;94.50;;;4.72;88.38;98949.53;5087478;28;20696;-73
2020/12/18 08:01:38;;;;;;;17.97;9.20;;;5.10;94.30;;;4.75;89.52;98952.88;5084775;28;20641;-74
2020/12/18 08:04:10;;;;;;;23.77;14.10;;;5.20;94.40;;;4.82;88.92;98953.53;5088320;28;20638;-75
2020/12/18 08:06:40;;;;;;;22.73;12.70;;;5.30;94.50;;;4.90;89.06;98954.13;5072921;28;20657;-74
2020/12/18 08:09:09;;;;;;;22.03;12.13;;;5.30;94.40;;;4.93;89.38;98954.03;5067668;28;20620;-74
2020/12/18 08:11:42;;;;;;;17.90;10.20;;;5.40;94.40;;;4.91;88.83;98958.41;5071527;28;20639;-73
2020/12/18 08:14:12;;;;;;;20.10;11.80;;;5.40;94.10;;;4.94;88.30;98966.91;5074915;28;20661;-73
2020/12/18 08:16:39;;;;;;;14.03;10.93;;;5.40;94.20;;;4.99;89.18;98959.88;5085848;28;20634;-74
2020/12/18 08:19:09;;;;;;;24.77;11.50;;;5.40;94.30;;;4.96;88.70;98959.97;5068987;28;20657;-74
2020/12/18 08:21:40;;;;;;;16.67;12.80;;;5.40;94.00;;;4.91;88.30;98969.56;5068078;28;20739;-74
2020/12/18 08:24:12;;;;;;;19.00;13.47;;;5.40;94.20;;;4.95;88.88;98972.94;5064063;28;20623;-74
2020/12/18 08:26:46;;;;;;;19.00;13.27;;;5.40;94.60;;;5.04;90.02;98972.63;5059244;28;20632;-73
2020/12/18 08:29:15;;;;;;;30.57;15.70;;;5.50;94.70;;;5.15;88.89;98971.38;5071978;28;20752;-74
2020/12/18 08:31:46;;;;;;;28.37;14.83;;;5.60;94.60;;;5.22;88.64;98973.69;5064783;28;20727;-73
2020/12/18 08:34:24;;;;;;;35.33;14.00;;;5.60;94.40;;;5.27;88.44;98969.22;5061968;28;20679;-74
2020/12/18 08:36:52;;;;;;;30.93;14.17;;;5.70;94.20;;;5.29;88.13;98970.03;5069869;28;20631;-74
2020/12/18 08:39:20;;;;;;;34.90;15.20;;;5.70;94.20;;;5.32;88.45;98977.69;5052486;28;20635;-73
2020/12/18 08:41:51;;;;;;;20.57;12.37;;;5.70;94.20;;;5.29;88.19;98971.75;5070496;28;20693;-74
2020/12/18 08:44:23;;;;;;;24.70;12.30;;;5.70;94.20;;;5.27;88.82;98974.38;5069585;28;20656;-74
2020/12/18 08:46:51;;;;;;;19.77;12.93;;;5.70;94.20;;;5.30;88.88;98971.69;5053807;28;20616;-74
2020/12/18 08:49:21;;;;;;;33.40;13.70;;;5.70;94.20;;;5.35;88.88;98968.97;5059429;28;20681;-74
2020/12/18 08:51:51;;;;;;;51.43;13.90;;;5.80;94.30;;;5.35;89.20;98972.41;5068067;28;21225;-72
2020/12/18 08:54:25;;;;;;;49.03;14.07;;;5.80;94.40;;;5.36;88.55;98971.50;5075093;28;20614;-73
2020/12/18 08:57:23;;;;;;;25.13;12.00;;;5.80;94.40;;;5.37;89.09;98968.03;5066381;28;20624;-73
2020/12/18 09:00:12;;;;;;;26.93;12.83;;;5.80;94.50;;;5.33;89.12;98979.34;5055184;28;20628;-74
2020/12/18 09:02:43;;;;;;;37.23;11.90;;;5.80;94.50;;;5.25;88.80;98972.78;5053344;28;20644;-73
2020/12/18 09:05:22;;;;;;;26.87;14.63;;;5.70;94.20;;;5.18;88.92;98974.69;5076126;28;20632;-73
2020/12/18 09:07:54;;;;;;;27.13;15.53;;;5.70;94.30;;;5.18;89.69;98979.84;5057624;28;20650;-74
2020/12/18 09:10:38;;;;;;;30.87;13.40;;;5.60;94.50;;;5.18;89.32;98972.09;5054236;28;21155;-75
2020/12/18 09:13:12;;;;;;;26.37;13.70;;;5.60;94.70;;;5.18;90.21;98974.69;5066241;28;20659;-74
2020/12/18 09:15:43;;;;;;;28.23;13.07;;;5.70;94.80;;;5.20;89.00;98977.22;5053488;28;20639;-75
2020/12/18 09:18:12;;;;;;;34.73;12.27;;;5.60;94.60;;;5.22;90.38;98980.63;5057246;28;20624;-74
2020/12/18 09:20:43;;;;;;;32.73;12.70;;;5.70;94.80;;;5.22;89.79;98978.88;5059073;28;20672;-74
2020/12/18 09:23:13;;;;;;;37.90;13.60;;;5.70;95.30;;;5.28;90.35;98983.00;5067895;28;20631;-75
2020/12/18 09:25:43;;;;;;;39.93;13.67;;;5.70;95.10;;;5.34;90.63;98987.97;5063150;28;21375;-74
2020/12/18 09:28:13;;;;;;;37.83;12.93;;;5.80;95.20;;;5.39;90.52;98992.06;5055027;28;20663;-74
2020/12/18 09:30:47;;;;;;;63.27;18.13;;;5.80;95.50;;;5.50;90.65;98989.13;5061795;28;20632;-73
2020/12/18 09:33:31;;;;;;;55.03;20.97;;;5.90;95.50;;;5.59;90.21;98996.59;5055882;28;20661;-73
2020/12/18 09:36:03;;;;;;;30.23;13.50;;;6.00;95.80;;;5.67;90.50;98990.25;5054702;28;20640;-73
2020/12/18 09:38:34;;;;;;;41.47;13.27;;;6.00;95.50;;;5.61;89.02;98980.13;5054500;28;21270;-73
2020/12/18 09:41:04;;;;;;;45.30;12.70;;;6.00;94.50;;;5.59;88.56;98981.91;5057795;28;20636;-74
2020/12/18 09:43:32;;;;;;;42.80;25.70;;;6.00;94.40;;;5.60;88.47;98978.41;5064552;28;20627;-74
2020/12/18 09:46:01;;;;;;;27.13;14.77;;;6.00;94.50;;;5.63;88.63;98978.31;5056362;28;20636;-74
2020/12/18 09:48:29;;;;;;;31.40;16.03;;;6.00;94.70;;;5.66;88.49;98973.88;5054425;28;21254;-74
2020/12/18 09:50:58;;;;;;;24.50;14.23;;;6.00;94.40;;;5.69;89.01;98970.34;5056804;28;20675;-73
2020/12/18 09:53:27;;;;;;;34.30;14.30;;;6.10;94.40;;;5.71;89.13;98959.06;5060329;28;20652;-74
2020/12/18 09:55:55;;;;;;;37.87;14.70;;;6.10;94.60;;;5.74;89.85;98953.81;5061867;28;20675;-75
2020/12/18 09:58:25;;;;;;;32.30;15.50;;;6.10;95.40;;;5.78;90.13;98959.72;5065310;28;20623;-75
2020/12/18 10:00:53;;;;;;;32.50;14.83;;;6.20;95.10;;;5.86;89.64;98952.50;5053822;28;20647;-74
2020/12/18 10:03:21;;;;;;;34.10;14.80;;;6.20;95.20;;;5.90;89.59;98954.09;5063125;28;20756;-74
2020/12/18 10:05:50;;;;;;;21.77;14.90;;;6.30;95.20;;;5.94;89.84;98950.47;5066521;28;20632;-73
2020/12/18 10:08:19;;;;;;;22.43;15.90;;;6.40;95.20;;;6.00;90.18;98956.28;5066247;28;21020;-74
2020/12/18 10:10:47;;;;;;;20.73;14.27;;;6.40;95.20;;;6.09;90.48;98946.44;5058701;28;20668;-72
2020/12/18 10:13:15;;;;;;;19.60;13.70;;;6.50;95.70;;;6.25;90.61;98949.28;5065249;28;20756;-73
2020/12/18 10:15:44;;;;;;;20.13;13.70;;;6.60;95.60;;;6.46;90.75;98951.06;5067147;28;21014;-73
2020/12/18 10:18:12;;;;;;;16.60;13.83;;;6.80;95.90;;;6.76;90.85;98945.53;5041812;28;20718;-75
2020/12/18 10:20:42;;;;;;;21.23;13.53;;;7.00;96.20;;;6.96;90.38;98950.75;5057008;28;20620;-75
2020/12/18 10:23:09;;;;;;;19.23;14.00;;;7.20;96.00;;;6.86;88.88;98942.53;5067234;28;20644;-75
2020/12/18 10:25:50;;;;;;;18.43;13.40;;;7.20;95.10;;;6.79;89.83;98935.88;5052464;28;21144;-74
2020/12/18 10:28:18;;;;;;;19.70;13.53;;;7.20;95.10;;;6.85;89.10;98940.81;5066529;28;20640;-76
2020/12/18 10:30:46;;;;;;;17.80;13.37;;;7.20;95.20;;;7.09;89.71;98945.03;5051258;28;20738;-75
2020/12/18 10:33:13;;;;;;;20.37;14.60;;;7.40;95.70;;;7.29;90.89;98948.50;5060747;28;20991;-75
2020/12/18 10:35:42;;;;;;;15.80;12.10;;;7.50;96.00;;;7.44;90.02;98942.63;5064980;28;20635;-74
2020/12/18 10:38:10;;;;;;;17.87;13.60;;;7.70;95.80;;;7.56;89.87;98942.13;5066323;28;20640;-74
2020/12/18 10:40:37;;;;;;;19.40;15.63;;;7.80;95.60;;;7.75;89.55;98938.66;5052902;28;20643;-75
2020/12/18 10:43:05;;;;;;;21.97;14.93;;;8.00;96.00;;;7.92;90.21;98930.97;5057111;28;20642;-74
2020/12/18 10:45:33;;;;;;;18.37;13.97;;;8.20;95.80;;;7.99;88.59;98927.19;5052162;28;20639;-75
2020/12/18 10:48:01;;;;;;;20.70;15.60;;;8.20;95.40;;;8.11;89.04;98921.44;5052675;28;20647;-75
2020/12/18 10:50:30;;;;;;;20.20;15.30;;;8.40;95.40;;;8.25;88.35;98924.28;5052663;28;20652;-75
2020/12/18 10:53:00;;;;;;;19.43;16.47;;;8.50;95.50;;;8.37;89.61;98921.97;5058073;28;20647;-75
2020/12/18 10:55:28;;;;;;;17.30;13.50;;;8.70;95.50;;;8.41;88.30;98925.28;5072046;28;20641;-75